sensor_id;sensor_type;location;lat;lon;timestamp;P1;durP1;ratioP1;P2;durP2;ratioP2
2850;SDS011;1433;49.976;8.342;2023-08-06T00:00:15;3.53;;;2.83;;
2850;SDS011;1433;49.976;8.342;2023-08-06T00:02:42;3.33;;;3.03;;
2850;SDS011;1433;49.976;8.342;2023-08-06T00:05:08;3.60;;;3.03;;
2850;SDS011;1433;49.976;8.342;2023-08-06T00:07:34;3.20;;;2.90;;
2850;SDS011;1433;49.976;8.342;2023-08-06T00:10:06;4.10;;;3.53;;
2850;SDS011;1433;49.976;8.342;2023-08-06T00:12:33;5.43;;;4.57;;
2850;SDS011;1433;49.976;8.342;2023-08-06T00:15:01;2.87;;;2.67;;
2850;SDS011;1433;49.976;8.342;2023-08-06T00:17:28;3.13;;;2.83;;
2850;SDS011;1433;49.976;8.342;2023-08-06T00:19:54;2.90;;;2.70;;
2850;SDS011;1433;49.976;8.342;2023-08-06T00:22:20;2.73;;;2.53;;
2850;SDS011;1433;49.976;8.342;2023-08-06T00:24:46;3.00;;;2.70;;
2850;SDS011;1433;49.976;8.342;2023-08-06T00:27:12;2.53;;;2.33;;
2850;SDS011;1433;49.976;8.342;2023-08-06T00:29:38;5.37;;;2.27;;
2850;SDS011;1433;49.976;8.342;2023-08-06T00:32:04;3.33;;;2.80;;
2850;SDS011;1433;49.976;8.342;2023-08-06T00:34:31;4.60;;;3.20;;
2850;SDS011;1433;49.976;8.342;2023-08-06T00:36:57;3.43;;;2.60;;
2850;SDS011;1433;49.976;8.342;2023-08-06T00:39:23;3.47;;;2.83;;
2850;SDS011;1433;49.976;8.342;2023-08-06T00:41:49;3.00;;;2.77;;
2850;SDS011;1433;49.976;8.342;2023-08-06T00:44:15;3.23;;;2.73;;
2850;SDS011;1433;49.976;8.342;2023-08-06T00:46:41;2.73;;;2.50;;
2850;SDS011;1433;49.976;8.342;2023-08-06T00:49:07;7.73;;;4.10;;
2850;SDS011;1433;49.976;8.342;2023-08-06T00:51:34;3.30;;;3.00;;
2850;SDS011;1433;49.976;8.342;2023-08-06T00:54:02;5.00;;;3.10;;
2850;SDS011;1433;49.976;8.342;2023-08-06T00:56:28;3.10;;;2.87;;
2850;SDS011;1433;49.976;8.342;2023-08-06T00:58:55;3.43;;;2.57;;
2850;SDS011;1433;49.976;8.342;2023-08-06T01:01:21;3.83;;;3.53;;
2850;SDS011;1433;49.976;8.342;2023-08-06T01:03:47;2.57;;;2.37;;
2850;SDS011;1433;49.976;8.342;2023-08-06T01:06:14;2.90;;;2.60;;
2850;SDS011;1433;49.976;8.342;2023-08-06T01:08:54;3.77;;;2.77;;
2850;SDS011;1433;49.976;8.342;2023-08-06T01:14:02;3.60;;;2.23;;
2850;SDS011;1433;49.976;8.342;2023-08-06T01:16:38;2.90;;;2.70;;
2850;SDS011;1433;49.976;8.342;2023-08-06T01:19:15;2.50;;;2.30;;
2850;SDS011;1433;49.976;8.342;2023-08-06T01:21:44;3.47;;;3.17;;
2850;SDS011;1433;49.976;8.342;2023-08-06T01:24:10;3.20;;;2.90;;
2850;SDS011;1433;49.976;8.342;2023-08-06T01:26:39;3.57;;;3.27;;
2850;SDS011;1433;49.976;8.342;2023-08-06T01:29:23;2.90;;;2.70;;
2850;SDS011;1433;49.976;8.342;2023-08-06T01:31:55;2.80;;;2.60;;
2850;SDS011;1433;49.976;8.342;2023-08-06T01:34:24;3.30;;;2.97;;
2850;SDS011;1433;49.976;8.342;2023-08-06T01:36:52;3.07;;;2.77;;
2850;SDS011;1433;49.976;8.342;2023-08-06T01:39:19;5.03;;;2.97;;
2850;SDS011;1433;49.976;8.342;2023-08-06T01:41:47;2.90;;;2.70;;
2850;SDS011;1433;49.976;8.342;2023-08-06T01:44:16;3.60;;;3.30;;
2850;SDS011;1433;49.976;8.342;2023-08-06T01:46:43;3.20;;;2.80;;
2850;SDS011;1433;49.976;8.342;2023-08-06T01:49:09;3.70;;;3.33;;
2850;SDS011;1433;49.976;8.342;2023-08-06T01:51:35;4.53;;;3.70;;
2850;SDS011;1433;49.976;8.342;2023-08-06T01:54:01;4.63;;;3.00;;
2850;SDS011;1433;49.976;8.342;2023-08-06T01:56:27;5.87;;;3.97;;
2850;SDS011;1433;49.976;8.342;2023-08-06T01:58:54;4.23;;;3.83;;
2850;SDS011;1433;49.976;8.342;2023-08-06T02:01:20;7.20;;;3.57;;
2850;SDS011;1433;49.976;8.342;2023-08-06T02:03:46;3.67;;;2.93;;
2850;SDS011;1433;49.976;8.342;2023-08-06T02:06:12;3.97;;;3.67;;
2850;SDS011;1433;49.976;8.342;2023-08-06T02:08:38;3.17;;;2.90;;
2850;SDS011;1433;49.976;8.342;2023-08-06T02:11:05;3.13;;;2.83;;
2850;SDS011;1433;49.976;8.342;2023-08-06T02:13:31;3.57;;;3.23;;
2850;SDS011;1433;49.976;8.342;2023-08-06T02:15:57;3.30;;;3.00;;
2850;SDS011;1433;49.976;8.342;2023-08-06T02:18:24;4.70;;;3.60;;
2850;SDS011;1433;49.976;8.342;2023-08-06T02:20:57;3.73;;;3.43;;
2850;SDS011;1433;49.976;8.342;2023-08-06T02:23:24;5.43;;;2.97;;
2850;SDS011;1433;49.976;8.342;2023-08-06T02:26:04;4.30;;;3.80;;
2850;SDS011;1433;49.976;8.342;2023-08-06T02:28:30;5.70;;;3.67;;
2850;SDS011;1433;49.976;8.342;2023-08-06T02:30:57;3.77;;;3.47;;
2850;SDS011;1433;49.976;8.342;2023-08-06T02:33:24;4.00;;;3.33;;
2850;SDS011;1433;49.976;8.342;2023-08-06T02:35:50;6.20;;;3.40;;
2850;SDS011;1433;49.976;8.342;2023-08-06T02:38:16;5.03;;;3.60;;
2850;SDS011;1433;49.976;8.342;2023-08-06T02:40:43;3.87;;;3.47;;
2850;SDS011;1433;49.976;8.342;2023-08-06T02:43:11;3.60;;;2.63;;
2850;SDS011;1433;49.976;8.342;2023-08-06T02:45:38;3.40;;;3.10;;
2850;SDS011;1433;49.976;8.342;2023-08-06T02:48:04;2.70;;;2.50;;
2850;SDS011;1433;49.976;8.342;2023-08-06T02:50:37;3.23;;;2.90;;
2850;SDS011;1433;49.976;8.342;2023-08-06T02:53:07;3.27;;;3.03;;
2850;SDS011;1433;49.976;8.342;2023-08-06T02:55:34;3.50;;;3.20;;
2850;SDS011;1433;49.976;8.342;2023-08-06T02:58:03;4.37;;;3.97;;
2850;SDS011;1433;49.976;8.342;2023-08-06T03:00:31;3.97;;;3.57;;
2850;SDS011;1433;49.976;8.342;2023-08-06T03:03:01;3.63;;;2.67;;
2850;SDS011;1433;49.976;8.342;2023-08-06T03:05:30;3.00;;;2.43;;
2850;SDS011;1433;49.976;8.342;2023-08-06T03:07:56;2.80;;;2.60;;
2850;SDS011;1433;49.976;8.342;2023-08-06T03:10:24;5.23;;;2.67;;
2850;SDS011;1433;49.976;8.342;2023-08-06T03:12:51;3.80;;;2.23;;
2850;SDS011;1433;49.976;8.342;2023-08-06T03:15:18;2.63;;;2.40;;
2850;SDS011;1433;49.976;8.342;2023-08-06T03:17:44;2.53;;;2.33;;
2850;SDS011;1433;49.976;8.342;2023-08-06T03:20:11;3.00;;;2.43;;
2850;SDS011;1433;49.976;8.342;2023-08-06T03:22:38;2.70;;;2.50;;
2850;SDS011;1433;49.976;8.342;2023-08-06T03:25:05;2.07;;;1.93;;
2850;SDS011;1433;49.976;8.342;2023-08-06T03:27:32;2.57;;;2.20;;
2850;SDS011;1433;49.976;8.342;2023-08-06T03:29:59;2.37;;;2.20;;
2850;SDS011;1433;49.976;8.342;2023-08-06T03:32:27;3.67;;;2.40;;
2850;SDS011;1433;49.976;8.342;2023-08-06T03:34:53;2.83;;;2.10;;
2850;SDS011;1433;49.976;8.342;2023-08-06T03:37:20;2.67;;;2.17;;
2850;SDS011;1433;49.976;8.342;2023-08-06T03:39:46;2.17;;;1.97;;
2850;SDS011;1433;49.976;8.342;2023-08-06T03:42:12;2.60;;;2.00;;
2850;SDS011;1433;49.976;8.342;2023-08-06T03:44:38;3.93;;;2.43;;
2850;SDS011;1433;49.976;8.342;2023-08-06T03:47:06;2.60;;;2.40;;
2850;SDS011;1433;49.976;8.342;2023-08-06T03:49:33;1.60;;;1.50;;
2850;SDS011;1433;49.976;8.342;2023-08-06T03:51:59;2.30;;;2.10;;
2850;SDS011;1433;49.976;8.342;2023-08-06T03:54:25;4.43;;;2.53;;
2850;SDS011;1433;49.976;8.342;2023-08-06T03:56:51;1.90;;;1.70;;
2850;SDS011;1433;49.976;8.342;2023-08-06T03:59:19;3.30;;;2.03;;
2850;SDS011;1433;49.976;8.342;2023-08-06T04:01:46;1.67;;;1.57;;
2850;SDS011;1433;49.976;8.342;2023-08-06T04:04:13;2.20;;;1.93;;
2850;SDS011;1433;49.976;8.342;2023-08-06T04:06:39;3.57;;;2.07;;
2850;SDS011;1433;49.976;8.342;2023-08-06T04:09:06;2.40;;;2.20;;
2850;SDS011;1433;49.976;8.342;2023-08-06T04:11:32;2.10;;;1.60;;
2850;SDS011;1433;49.976;8.342;2023-08-06T04:13:58;2.57;;;1.73;;
2850;SDS011;1433;49.976;8.342;2023-08-06T04:16:24;3.77;;;2.27;;
2850;SDS011;1433;49.976;8.342;2023-08-06T04:18:52;2.53;;;1.87;;
2850;SDS011;1433;49.976;8.342;2023-08-06T04:21:19;2.13;;;1.40;;
2850;SDS011;1433;49.976;8.342;2023-08-06T04:23:46;3.03;;;1.90;;
2850;SDS011;1433;49.976;8.342;2023-08-06T04:26:13;4.90;;;1.90;;
2850;SDS011;1433;49.976;8.342;2023-08-06T04:28:39;2.13;;;1.50;;
2850;SDS011;1433;49.976;8.342;2023-08-06T04:31:05;3.63;;;1.40;;
2850;SDS011;1433;49.976;8.342;2023-08-06T04:33:32;1.60;;;1.30;;
2850;SDS011;1433;49.976;8.342;2023-08-06T04:36:00;2.40;;;1.43;;
2850;SDS011;1433;49.976;8.342;2023-08-06T04:38:27;1.10;;;1.00;;
2850;SDS011;1433;49.976;8.342;2023-08-06T04:40:53;2.63;;;1.23;;
2850;SDS011;1433;49.976;8.342;2023-08-06T04:43:20;2.80;;;1.20;;
2850;SDS011;1433;49.976;8.342;2023-08-06T04:45:50;1.07;;;0.97;;
2850;SDS011;1433;49.976;8.342;2023-08-06T04:48:17;2.70;;;1.27;;
2850;SDS011;1433;49.976;8.342;2023-08-06T04:50:46;1.73;;;0.90;;
2850;SDS011;1433;49.976;8.342;2023-08-06T04:53:13;1.47;;;1.13;;
2850;SDS011;1433;49.976;8.342;2023-08-06T04:55:39;2.20;;;1.63;;
2850;SDS011;1433;49.976;8.342;2023-08-06T04:58:05;1.10;;;1.00;;
2850;SDS011;1433;49.976;8.342;2023-08-06T05:00:32;1.80;;;0.93;;
2850;SDS011;1433;49.976;8.342;2023-08-06T05:02:59;1.60;;;1.00;;
2850;SDS011;1433;49.976;8.342;2023-08-06T05:05:27;2.40;;;1.20;;
2850;SDS011;1433;49.976;8.342;2023-08-06T05:07:54;2.17;;;1.20;;
2850;SDS011;1433;49.976;8.342;2023-08-06T05:10:24;1.50;;;1.00;;
2850;SDS011;1433;49.976;8.342;2023-08-06T05:12:52;1.73;;;1.27;;
2850;SDS011;1433;49.976;8.342;2023-08-06T05:15:18;2.30;;;1.50;;
2850;SDS011;1433;49.976;8.342;2023-08-06T05:17:45;1.97;;;1.40;;
2850;SDS011;1433;49.976;8.342;2023-08-06T05:20:11;1.50;;;1.40;;
2850;SDS011;1433;49.976;8.342;2023-08-06T05:22:37;1.50;;;1.40;;
2850;SDS011;1433;49.976;8.342;2023-08-06T05:25:03;3.03;;;1.20;;
2850;SDS011;1433;49.976;8.342;2023-08-06T05:27:30;2.57;;;1.30;;
2850;SDS011;1433;49.976;8.342;2023-08-06T05:29:56;4.13;;;1.70;;
2850;SDS011;1433;49.976;8.342;2023-08-06T05:32:22;2.03;;;1.50;;
2850;SDS011;1433;49.976;8.342;2023-08-06T05:34:48;1.40;;;1.30;;
2850;SDS011;1433;49.976;8.342;2023-08-06T05:37:15;3.23;;;1.60;;
2850;SDS011;1433;49.976;8.342;2023-08-06T05:39:41;3.80;;;1.60;;
2850;SDS011;1433;49.976;8.342;2023-08-06T05:42:07;1.47;;;1.37;;
2850;SDS011;1433;49.976;8.342;2023-08-06T05:44:33;1.70;;;1.60;;
2850;SDS011;1433;49.976;8.342;2023-08-06T05:46:59;1.80;;;1.67;;
2850;SDS011;1433;49.976;8.342;2023-08-06T05:49:25;1.23;;;1.13;;
2850;SDS011;1433;49.976;8.342;2023-08-06T05:51:52;2.70;;;1.50;;
2850;SDS011;1433;49.976;8.342;2023-08-06T05:54:19;1.53;;;1.30;;
2850;SDS011;1433;49.976;8.342;2023-08-06T05:56:45;1.37;;;1.27;;
2850;SDS011;1433;49.976;8.342;2023-08-06T05:59:11;1.30;;;1.20;;
2850;SDS011;1433;49.976;8.342;2023-08-06T06:01:37;1.20;;;1.10;;
2850;SDS011;1433;49.976;8.342;2023-08-06T06:04:03;1.57;;;0.90;;
2850;SDS011;1433;49.976;8.342;2023-08-06T06:06:29;1.23;;;1.13;;
2850;SDS011;1433;49.976;8.342;2023-08-06T06:08:56;1.23;;;1.00;;
2850;SDS011;1433;49.976;8.342;2023-08-06T06:11:22;1.10;;;1.00;;
2850;SDS011;1433;49.976;8.342;2023-08-06T06:13:50;1.23;;;1.13;;
2850;SDS011;1433;49.976;8.342;2023-08-06T06:16:16;1.47;;;1.00;;
2850;SDS011;1433;49.976;8.342;2023-08-06T06:18:43;1.10;;;1.00;;
2850;SDS011;1433;49.976;8.342;2023-08-06T06:21:09;1.10;;;1.00;;
2850;SDS011;1433;49.976;8.342;2023-08-06T06:23:36;1.33;;;1.10;;
2850;SDS011;1433;49.976;8.342;2023-08-06T06:26:02;1.20;;;1.10;;
2850;SDS011;1433;49.976;8.342;2023-08-06T06:28:29;1.20;;;1.10;;
2850;SDS011;1433;49.976;8.342;2023-08-06T06:30:59;1.80;;;1.00;;
2850;SDS011;1433;49.976;8.342;2023-08-06T06:33:26;1.10;;;1.00;;
2850;SDS011;1433;49.976;8.342;2023-08-06T06:35:53;1.00;;;0.90;;
2850;SDS011;1433;49.976;8.342;2023-08-06T06:38:19;1.10;;;1.00;;
2850;SDS011;1433;49.976;8.342;2023-08-06T06:40:53;1.30;;;1.20;;
2850;SDS011;1433;49.976;8.342;2023-08-06T06:43:19;1.67;;;1.20;;
2850;SDS011;1433;49.976;8.342;2023-08-06T06:45:45;1.50;;;1.40;;
2850;SDS011;1433;49.976;8.342;2023-08-06T06:48:11;2.20;;;1.00;;
2850;SDS011;1433;49.976;8.342;2023-08-06T06:50:37;1.30;;;1.17;;
2850;SDS011;1433;49.976;8.342;2023-08-06T06:53:05;1.00;;;0.90;;
2850;SDS011;1433;49.976;8.342;2023-08-06T06:55:31;0.90;;;0.80;;
2850;SDS011;1433;49.976;8.342;2023-08-06T06:57:57;2.47;;;1.00;;
2850;SDS011;1433;49.976;8.342;2023-08-06T07:00:23;5.43;;;1.30;;
2850;SDS011;1433;49.976;8.342;2023-08-06T07:02:49;1.30;;;1.10;;
2850;SDS011;1433;49.976;8.342;2023-08-06T07:05:15;1.70;;;1.30;;
2850;SDS011;1433;49.976;8.342;2023-08-06T07:07:41;1.20;;;1.00;;
2850;SDS011;1433;49.976;8.342;2023-08-06T07:10:07;1.07;;;0.97;;
2850;SDS011;1433;49.976;8.342;2023-08-06T07:12:34;1.27;;;1.00;;
2850;SDS011;1433;49.976;8.342;2023-08-06T07:15:01;1.17;;;1.03;;
2850;SDS011;1433;49.976;8.342;2023-08-06T07:17:28;1.10;;;1.00;;
2850;SDS011;1433;49.976;8.342;2023-08-06T07:19:54;1.30;;;1.20;;
2850;SDS011;1433;49.976;8.342;2023-08-06T07:22:20;1.30;;;1.20;;
2850;SDS011;1433;49.976;8.342;2023-08-06T07:24:47;1.13;;;1.03;;
2850;SDS011;1433;49.976;8.342;2023-08-06T07:27:13;1.10;;;1.00;;
2850;SDS011;1433;49.976;8.342;2023-08-06T07:29:39;1.10;;;1.00;;
2850;SDS011;1433;49.976;8.342;2023-08-06T07:32:06;1.37;;;1.27;;
2850;SDS011;1433;49.976;8.342;2023-08-06T07:34:32;1.03;;;0.93;;
2850;SDS011;1433;49.976;8.342;2023-08-06T07:36:59;1.20;;;1.10;;
2850;SDS011;1433;49.976;8.342;2023-08-06T07:39:25;1.30;;;1.20;;
2850;SDS011;1433;49.976;8.342;2023-08-06T07:41:51;1.00;;;0.90;;
2850;SDS011;1433;49.976;8.342;2023-08-06T07:44:17;1.00;;;0.90;;
2850;SDS011;1433;49.976;8.342;2023-08-06T07:46:43;1.00;;;0.90;;
2850;SDS011;1433;49.976;8.342;2023-08-06T07:49:10;1.10;;;1.00;;
2850;SDS011;1433;49.976;8.342;2023-08-06T07:51:37;1.10;;;0.90;;
2850;SDS011;1433;49.976;8.342;2023-08-06T07:54:03;1.00;;;0.90;;
2850;SDS011;1433;49.976;8.342;2023-08-06T07:56:29;2.07;;;1.00;;
2850;SDS011;1433;49.976;8.342;2023-08-06T07:58:55;1.20;;;1.10;;
2850;SDS011;1433;49.976;8.342;2023-08-06T08:01:21;1.03;;;0.93;;
2850;SDS011;1433;49.976;8.342;2023-08-06T08:03:47;1.20;;;1.00;;
2850;SDS011;1433;49.976;8.342;2023-08-06T08:06:13;1.73;;;1.03;;
2850;SDS011;1433;49.976;8.342;2023-08-06T08:08:39;1.30;;;1.07;;
2850;SDS011;1433;49.976;8.342;2023-08-06T08:11:05;1.47;;;1.37;;
2850;SDS011;1433;49.976;8.342;2023-08-06T08:13:31;1.20;;;1.00;;
2850;SDS011;1433;49.976;8.342;2023-08-06T08:15:58;1.63;;;1.40;;
2850;SDS011;1433;49.976;8.342;2023-08-06T08:18:25;1.60;;;0.87;;
2850;SDS011;1433;49.976;8.342;2023-08-06T08:20:51;1.37;;;1.10;;
2850;SDS011;1433;49.976;8.342;2023-08-06T08:23:17;1.60;;;1.10;;
2850;SDS011;1433;49.976;8.342;2023-08-06T08:25:45;1.03;;;0.90;;
2850;SDS011;1433;49.976;8.342;2023-08-06T08:28:11;1.40;;;1.07;;
2850;SDS011;1433;49.976;8.342;2023-08-06T08:30:38;1.00;;;0.90;;
2850;SDS011;1433;49.976;8.342;2023-08-06T08:33:09;1.30;;;1.00;;
2850;SDS011;1433;49.976;8.342;2023-08-06T08:35:36;5.27;;;1.00;;
2850;SDS011;1433;49.976;8.342;2023-08-06T08:38:02;1.40;;;1.30;;
2850;SDS011;1433;49.976;8.342;2023-08-06T08:40:32;1.43;;;1.27;;
2850;SDS011;1433;49.976;8.342;2023-08-06T08:42:59;1.47;;;1.37;;
2850;SDS011;1433;49.976;8.342;2023-08-06T08:45:26;1.10;;;0.80;;
2850;SDS011;1433;49.976;8.342;2023-08-06T08:47:54;1.30;;;1.13;;
2850;SDS011;1433;49.976;8.342;2023-08-06T08:50:21;0.97;;;0.80;;
2850;SDS011;1433;49.976;8.342;2023-08-06T08:52:47;1.10;;;1.00;;
2850;SDS011;1433;49.976;8.342;2023-08-06T08:55:16;1.20;;;1.10;;
2850;SDS011;1433;49.976;8.342;2023-08-06T08:57:43;1.10;;;1.00;;
2850;SDS011;1433;49.976;8.342;2023-08-06T09:00:09;1.60;;;1.50;;
2850;SDS011;1433;49.976;8.342;2023-08-06T09:02:35;1.60;;;1.50;;
2850;SDS011;1433;49.976;8.342;2023-08-06T09:05:03;1.40;;;1.10;;
2850;SDS011;1433;49.976;8.342;2023-08-06T09:07:32;1.17;;;1.07;;
2850;SDS011;1433;49.976;8.342;2023-08-06T09:10:04;1.03;;;0.93;;
2850;SDS011;1433;49.976;8.342;2023-08-06T09:12:33;2.20;;;1.10;;
2850;SDS011;1433;49.976;8.342;2023-08-06T09:14:59;1.13;;;1.03;;
2850;SDS011;1433;49.976;8.342;2023-08-06T09:17:25;1.10;;;1.00;;
2850;SDS011;1433;49.976;8.342;2023-08-06T09:19:51;1.20;;;1.10;;
2850;SDS011;1433;49.976;8.342;2023-08-06T09:22:17;1.10;;;1.00;;
2850;SDS011;1433;49.976;8.342;2023-08-06T09:24:44;1.40;;;1.20;;
2850;SDS011;1433;49.976;8.342;2023-08-06T09:27:11;1.00;;;0.90;;
2850;SDS011;1433;49.976;8.342;2023-08-06T09:29:45;1.87;;;1.40;;
2850;SDS011;1433;49.976;8.342;2023-08-06T09:32:13;1.20;;;1.10;;
2850;SDS011;1433;49.976;8.342;2023-08-06T09:34:41;1.27;;;1.17;;
2850;SDS011;1433;49.976;8.342;2023-08-06T09:37:08;1.20;;;1.10;;
2850;SDS011;1433;49.976;8.342;2023-08-06T09:39:38;1.20;;;1.10;;
2850;SDS011;1433;49.976;8.342;2023-08-06T09:42:06;1.13;;;1.03;;
2850;SDS011;1433;49.976;8.342;2023-08-06T09:44:33;1.10;;;1.00;;
2850;SDS011;1433;49.976;8.342;2023-08-06T09:47:02;1.10;;;1.00;;
2850;SDS011;1433;49.976;8.342;2023-08-06T09:52:02;1.37;;;1.27;;
2850;SDS011;1433;49.976;8.342;2023-08-06T09:54:30;1.10;;;0.97;;
2850;SDS011;1433;49.976;8.342;2023-08-06T09:56:58;1.10;;;1.00;;
2850;SDS011;1433;49.976;8.342;2023-08-06T09:59:25;1.40;;;1.30;;
2850;SDS011;1433;49.976;8.342;2023-08-06T10:01:53;1.93;;;1.00;;
2850;SDS011;1433;49.976;8.342;2023-08-06T10:04:20;1.00;;;0.90;;
2850;SDS011;1433;49.976;8.342;2023-08-06T10:06:47;1.17;;;1.07;;
2850;SDS011;1433;49.976;8.342;2023-08-06T10:09:14;1.37;;;1.20;;
2850;SDS011;1433;49.976;8.342;2023-08-06T10:11:40;1.20;;;1.10;;
2850;SDS011;1433;49.976;8.342;2023-08-06T10:14:10;1.30;;;1.00;;
2850;SDS011;1433;49.976;8.342;2023-08-06T10:16:54;1.20;;;1.00;;
2850;SDS011;1433;49.976;8.342;2023-08-06T10:19:23;1.10;;;1.00;;
2850;SDS011;1433;49.976;8.342;2023-08-06T10:24:57;1.10;;;1.00;;
2850;SDS011;1433;49.976;8.342;2023-08-06T10:35:36;1.10;;;1.00;;
2850;SDS011;1433;49.976;8.342;2023-08-06T10:38:11;1.30;;;1.20;;
2850;SDS011;1433;49.976;8.342;2023-08-06T10:41:03;1.20;;;1.10;;
2850;SDS011;1433;49.976;8.342;2023-08-06T10:43:31;1.10;;;1.00;;
2850;SDS011;1433;49.976;8.342;2023-08-06T10:46:04;1.00;;;0.90;;
2850;SDS011;1433;49.976;8.342;2023-08-06T10:48:36;1.20;;;1.10;;
2850;SDS011;1433;49.976;8.342;2023-08-06T10:51:12;1.20;;;1.00;;
2850;SDS011;1433;49.976;8.342;2023-08-06T10:53:43;1.10;;;1.00;;
2850;SDS011;1433;49.976;8.342;2023-08-06T10:56:18;1.00;;;0.90;;
2850;SDS011;1433;49.976;8.342;2023-08-06T10:58:46;1.30;;;1.20;;
2850;SDS011;1433;49.976;8.342;2023-08-06T11:01:12;1.10;;;1.00;;
2850;SDS011;1433;49.976;8.342;2023-08-06T11:03:39;1.17;;;1.07;;
2850;SDS011;1433;49.976;8.342;2023-08-06T11:06:10;1.27;;;1.17;;
2850;SDS011;1433;49.976;8.342;2023-08-06T11:08:37;1.97;;;1.10;;
2850;SDS011;1433;49.976;8.342;2023-08-06T11:11:12;1.73;;;1.00;;
2850;SDS011;1433;49.976;8.342;2023-08-06T11:13:37;1.20;;;1.10;;
2850;SDS011;1433;49.976;8.342;2023-08-06T11:16:04;1.30;;;1.20;;
2850;SDS011;1433;49.976;8.342;2023-08-06T11:18:32;1.50;;;1.20;;
2850;SDS011;1433;49.976;8.342;2023-08-06T11:21:02;1.00;;;0.90;;
2850;SDS011;1433;49.976;8.342;2023-08-06T11:23:28;1.20;;;1.10;;
2850;SDS011;1433;49.976;8.342;2023-08-06T11:25:55;1.20;;;1.10;;
2850;SDS011;1433;49.976;8.342;2023-08-06T11:28:22;1.30;;;1.20;;
2850;SDS011;1433;49.976;8.342;2023-08-06T11:30:48;1.70;;;1.00;;
2850;SDS011;1433;49.976;8.342;2023-08-06T11:33:26;1.10;;;1.00;;
2850;SDS011;1433;49.976;8.342;2023-08-06T11:35:57;1.13;;;1.03;;
2850;SDS011;1433;49.976;8.342;2023-08-06T11:38:24;1.20;;;1.10;;
2850;SDS011;1433;49.976;8.342;2023-08-06T11:40:54;1.10;;;1.00;;
2850;SDS011;1433;49.976;8.342;2023-08-06T11:43:30;2.30;;;2.20;;
2850;SDS011;1433;49.976;8.342;2023-08-06T11:45:57;1.20;;;0.90;;
2850;SDS011;1433;49.976;8.342;2023-08-06T11:48:23;0.90;;;0.70;;
2850;SDS011;1433;49.976;8.342;2023-08-06T11:50:49;1.10;;;0.90;;
2850;SDS011;1433;49.976;8.342;2023-08-06T11:53:19;1.87;;;0.80;;
2850;SDS011;1433;49.976;8.342;2023-08-06T11:55:47;0.97;;;0.80;;
2850;SDS011;1433;49.976;8.342;2023-08-06T11:58:13;1.00;;;0.80;;
2850;SDS011;1433;49.976;8.342;2023-08-06T12:00:42;1.10;;;0.90;;
2850;SDS011;1433;49.976;8.342;2023-08-06T12:03:09;1.00;;;0.80;;
2850;SDS011;1433;49.976;8.342;2023-08-06T12:05:36;1.00;;;0.90;;
2850;SDS011;1433;49.976;8.342;2023-08-06T12:08:04;1.10;;;0.97;;
2850;SDS011;1433;49.976;8.342;2023-08-06T12:10:31;2.27;;;0.90;;
2850;SDS011;1433;49.976;8.342;2023-08-06T12:12:58;1.20;;;0.80;;
2850;SDS011;1433;49.976;8.342;2023-08-06T12:15:26;1.07;;;0.97;;
2850;SDS011;1433;49.976;8.342;2023-08-06T12:17:52;1.07;;;0.90;;
2850;SDS011;1433;49.976;8.342;2023-08-06T12:20:18;1.43;;;0.93;;
2850;SDS011;1433;49.976;8.342;2023-08-06T12:22:45;1.07;;;0.90;;
2850;SDS011;1433;49.976;8.342;2023-08-06T12:25:12;1.10;;;0.90;;
2850;SDS011;1433;49.976;8.342;2023-08-06T12:27:39;1.07;;;0.87;;
2850;SDS011;1433;49.976;8.342;2023-08-06T12:30:07;1.33;;;0.90;;
2850;SDS011;1433;49.976;8.342;2023-08-06T12:32:34;1.40;;;1.07;;
2850;SDS011;1433;49.976;8.342;2023-08-06T12:35:01;1.07;;;0.90;;
2850;SDS011;1433;49.976;8.342;2023-08-06T12:37:28;1.83;;;1.00;;
2850;SDS011;1433;49.976;8.342;2023-08-06T12:39:54;1.10;;;1.00;;
2850;SDS011;1433;49.976;8.342;2023-08-06T12:42:23;2.40;;;1.07;;
2850;SDS011;1433;49.976;8.342;2023-08-06T12:44:50;1.97;;;1.10;;
2850;SDS011;1433;49.976;8.342;2023-08-06T12:47:16;1.00;;;0.90;;
2850;SDS011;1433;49.976;8.342;2023-08-06T12:49:43;1.30;;;1.10;;
2850;SDS011;1433;49.976;8.342;2023-08-06T12:52:09;1.00;;;0.90;;
2850;SDS011;1433;49.976;8.342;2023-08-06T12:54:38;4.03;;;1.10;;
2850;SDS011;1433;49.976;8.342;2023-08-06T12:57:04;1.30;;;1.00;;
2850;SDS011;1433;49.976;8.342;2023-08-06T12:59:31;1.33;;;1.10;;
2850;SDS011;1433;49.976;8.342;2023-08-06T13:02:04;1.20;;;1.10;;
2850;SDS011;1433;49.976;8.342;2023-08-06T13:04:30;1.40;;;1.10;;
2850;SDS011;1433;49.976;8.342;2023-08-06T13:06:57;1.30;;;1.10;;
2850;SDS011;1433;49.976;8.342;2023-08-06T13:09:23;1.40;;;1.20;;
2850;SDS011;1433;49.976;8.342;2023-08-06T13:11:50;1.20;;;1.10;;
2850;SDS011;1433;49.976;8.342;2023-08-06T13:14:16;1.20;;;1.00;;
2850;SDS011;1433;49.976;8.342;2023-08-06T13:16:43;1.40;;;0.93;;
2850;SDS011;1433;49.976;8.342;2023-08-06T13:19:10;1.50;;;1.03;;
2850;SDS011;1433;49.976;8.342;2023-08-06T13:24:15;1.73;;;1.23;;
2850;SDS011;1433;49.976;8.342;2023-08-06T13:26:42;1.33;;;1.23;;
2850;SDS011;1433;49.976;8.342;2023-08-06T13:29:08;1.40;;;1.30;;
2850;SDS011;1433;49.976;8.342;2023-08-06T13:31:35;3.77;;;1.47;;
2850;SDS011;1433;49.976;8.342;2023-08-06T13:34:01;1.77;;;1.40;;
2850;SDS011;1433;49.976;8.342;2023-08-06T13:36:27;1.10;;;1.00;;
2850;SDS011;1433;49.976;8.342;2023-08-06T13:38:54;1.30;;;0.90;;
2850;SDS011;1433;49.976;8.342;2023-08-06T13:41:20;1.00;;;0.90;;
2850;SDS011;1433;49.976;8.342;2023-08-06T13:43:47;1.60;;;1.00;;
2850;SDS011;1433;49.976;8.342;2023-08-06T13:46:14;1.10;;;0.90;;
2850;SDS011;1433;49.976;8.342;2023-08-06T13:48:44;1.10;;;0.83;;
2850;SDS011;1433;49.976;8.342;2023-08-06T13:51:11;1.00;;;0.80;;
2850;SDS011;1433;49.976;8.342;2023-08-06T13:53:38;1.40;;;0.90;;
2850;SDS011;1433;49.976;8.342;2023-08-06T13:56:06;1.20;;;0.90;;
2850;SDS011;1433;49.976;8.342;2023-08-06T13:58:33;0.90;;;0.70;;
2850;SDS011;1433;49.976;8.342;2023-08-06T14:00:59;1.10;;;0.90;;
2850;SDS011;1433;49.976;8.342;2023-08-06T14:03:25;3.27;;;0.90;;
2850;SDS011;1433;49.976;8.342;2023-08-06T14:05:52;1.70;;;0.90;;
2850;SDS011;1433;49.976;8.342;2023-08-06T14:08:20;1.00;;;0.80;;
2850;SDS011;1433;49.976;8.342;2023-08-06T14:10:47;0.90;;;0.80;;
2850;SDS011;1433;49.976;8.342;2023-08-06T14:13:13;1.00;;;0.90;;
2850;SDS011;1433;49.976;8.342;2023-08-06T14:15:39;3.30;;;0.87;;
2850;SDS011;1433;49.976;8.342;2023-08-06T14:18:08;0.97;;;0.80;;
2850;SDS011;1433;49.976;8.342;2023-08-06T14:20:34;2.30;;;0.90;;
2850;SDS011;1433;49.976;8.342;2023-08-06T14:23:01;1.00;;;0.90;;
2850;SDS011;1433;49.976;8.342;2023-08-06T14:25:27;1.27;;;1.17;;
2850;SDS011;1433;49.976;8.342;2023-08-06T14:27:53;1.00;;;0.90;;
2850;SDS011;1433;49.976;8.342;2023-08-06T14:30:20;1.30;;;0.90;;
2850;SDS011;1433;49.976;8.342;2023-08-06T14:32:46;1.73;;;1.63;;
2850;SDS011;1433;49.976;8.342;2023-08-06T14:35:12;0.90;;;0.80;;
2850;SDS011;1433;49.976;8.342;2023-08-06T14:37:39;1.10;;;0.80;;
2850;SDS011;1433;49.976;8.342;2023-08-06T14:40:06;1.10;;;0.90;;
2850;SDS011;1433;49.976;8.342;2023-08-06T14:42:33;1.03;;;0.90;;
2850;SDS011;1433;49.976;8.342;2023-08-06T14:45:00;2.37;;;1.00;;
2850;SDS011;1433;49.976;8.342;2023-08-06T14:47:26;1.20;;;0.80;;
2850;SDS011;1433;49.976;8.342;2023-08-06T14:49:52;0.97;;;0.80;;
2850;SDS011;1433;49.976;8.342;2023-08-06T14:52:19;1.30;;;0.80;;
2850;SDS011;1433;49.976;8.342;2023-08-06T14:54:45;1.07;;;0.90;;
2850;SDS011;1433;49.976;8.342;2023-08-06T14:57:12;1.30;;;0.73;;
2850;SDS011;1433;49.976;8.342;2023-08-06T14:59:39;0.93;;;0.80;;
2850;SDS011;1433;49.976;8.342;2023-08-06T15:02:06;1.00;;;0.80;;
2850;SDS011;1433;49.976;8.342;2023-08-06T15:04:32;0.90;;;0.80;;
2850;SDS011;1433;49.976;8.342;2023-08-06T15:06:58;0.90;;;0.70;;
2850;SDS011;1433;49.976;8.342;2023-08-06T15:09:24;1.03;;;0.90;;
2850;SDS011;1433;49.976;8.342;2023-08-06T15:11:51;0.90;;;0.80;;
2850;SDS011;1433;49.976;8.342;2023-08-06T15:14:17;1.10;;;1.00;;
2850;SDS011;1433;49.976;8.342;2023-08-06T15:16:46;1.23;;;0.83;;
2850;SDS011;1433;49.976;8.342;2023-08-06T15:19:12;1.13;;;0.80;;
2850;SDS011;1433;49.976;8.342;2023-08-06T15:21:38;1.07;;;0.83;;
2850;SDS011;1433;49.976;8.342;2023-08-06T15:24:05;1.00;;;0.80;;
2850;SDS011;1433;49.976;8.342;2023-08-06T15:26:31;0.93;;;0.80;;
2850;SDS011;1433;49.976;8.342;2023-08-06T15:28:57;0.90;;;0.80;;
2850;SDS011;1433;49.976;8.342;2023-08-06T15:31:23;1.00;;;0.80;;
2850;SDS011;1433;49.976;8.342;2023-08-06T15:33:49;1.00;;;0.80;;